Time;durP1;ratioP1;P1;durP2;ratioP2;P2;SDS_P1;SDS_P2;PMS_P1;PMS_P2;Temp;Humidity;BMP_temperature;BMP_pressure;BME280_temperature;BME280_humidity;BME280_pressure;Samples;Min_cycle;Max_cycle;Signal;HPM_P1;HPM_P2
2022/06/13 00:00:49;;;;;;;7.50;2.75;;;19.90;78.50;;;;;;5061130;28;20056;-49
2022/06/13 00:03:16;;;;;;;7.45;2.17;;;19.80;78.60;;;;;;5060313;28;20112;-51
2022/06/13 00:05:41;;;;;;;4.47;1.92;;;19.80;78.80;;;;;;5060226;28;20017;-51
2022/06/13 00:08:07;;;;;;;8.13;2.40;;;19.70;79.10;;;;;;5059961;28;20056;-54
2022/06/13 00:10:33;;;;;;;8.82;2.05;;;19.70;79.20;;;;;;5044677;28;20453;-49
2022/06/13 00:12:58;;;;;;;7.38;2.42;;;19.70;79.40;;;;;;5039896;28;20096;-52
2022/06/13 00:15:24;;;;;;;4.35;1.83;;;19.80;79.50;;;;;;5038260;28;20098;-48
2022/06/13 00:17:49;;;;;;;5.75;1.90;;;19.70;79.40;;;;;;5038660;28;20039;-50
2022/06/13 00:20:15;;;;;;;9.15;2.92;;;19.60;79.30;;;;;;5039397;28;20083;-52
2022/06/13 00:22:40;;;;;;;6.65;2.53;;;19.60;79.50;;;;;;5047865;28;20082;-50
2022/06/13 00:25:07;;;;;;;6.15;1.90;;;19.60;79.60;;;;;;5058995;28;20073;-53
2022/06/13 00:27:33;;;;;;;4.18;1.70;;;19.60;79.60;;;;;;5057411;28;20041;-51
2022/06/13 00:29:58;;;;;;;8.43;2.03;;;19.50;79.90;;;;;;5059062;28;20033;-50
2022/06/13 00:32:24;;;;;;;6.82;2.20;;;19.50;80.00;;;;;;5058011;28;20037;-51
2022/06/13 00:34:50;;;;;;;9.05;1.90;;;19.40;80.10;;;;;;5058227;28;20400;-51
2022/06/13 00:37:16;;;;;;;10.15;2.10;;;19.40;80.30;;;;;;5050981;28;20055;-48
2022/06/13 00:39:42;;;;;;;5.40;1.85;;;19.40;80.50;;;;;;5038760;28;20104;-49
2022/06/13 00:42:08;;;;;;;6.18;2.25;;;19.30;80.80;;;;;;5039943;28;20099;-52
2022/06/13 00:44:36;;;;;;;8.75;2.65;;;19.30;80.80;;;;;;5058681;28;20043;-49
2022/06/13 00:47:03;;;;;;;7.10;2.13;;;19.20;80.80;;;;;;5057339;28;20021;-51
2022/06/13 00:49:41;;;;;;;6.32;1.95;;;19.10;81.70;;;;;;5058733;28;20020;-50
2022/06/13 00:52:23;;;;;;;6.55;2.42;;;19.10;81.20;;;;;;5059325;28;20408;-51
2022/06/13 00:54:51;;;;;;;5.72;2.03;;;19.00;81.40;;;;;;5059634;28;20450;-49
2022/06/13 00:57:20;;;;;;;6.50;2.67;;;19.10;81.50;;;;;;5050485;28;20037;-51
2022/06/13 00:59:48;;;;;;;7.85;2.38;;;19.10;81.70;;;;;;5040182;28;20026;-52
2022/06/13 01:02:14;;;;;;;7.38;2.05;;;19.00;81.80;;;;;;5054918;28;20033;-50
2022/06/13 01:04:42;;;;;;;4.90;1.80;;;18.90;82.00;;;;;;5058669;28;20112;-48
2022/06/13 01:07:10;;;;;;;4.45;1.85;;;18.90;82.10;;;;;;5059517;28;20025;-49
2022/06/13 01:12:22;;;;;;;6.13;2.38;;;18.80;82.10;;;;;;5059073;28;20117;-52
2022/06/13 01:15:13;;;;;;;5.80;2.22;;;18.70;82.30;;;;;;5059763;28;20052;-51
2022/06/13 01:18:03;;;;;;;5.97;1.95;;;18.70;82.60;;;;;;5039020;28;20025;-50
2022/06/13 01:20:44;;;;;;;6.80;2.05;;;18.70;82.90;;;;;;5039620;28;20033;-45
2022/06/13 01:23:22;;;;;;;5.07;2.00;;;18.70;83.10;;;;;;5038889;28;20022;-49
2022/06/13 01:26:41;;;;;;;5.88;2.72;;;18.60;83.30;;;;;;5038931;28;20025;-53
2022/06/13 01:29:31;;;;;;;9.45;2.78;;;18.60;83.50;;;;;;5038705;28;20033;-50
2022/06/13 01:31:56;;;;;;;5.05;2.10;;;18.70;83.40;;;;;;5039354;28;20503;-53
2022/06/13 01:34:37;;;;;;;10.80;2.50;;;18.60;83.50;;;;;;5037364;28;20117;-51
2022/06/13 01:37:18;;;;;;;4.97;2.10;;;18.60;83.90;;;;;;5039151;28;20048;-50
2022/06/13 01:39:52;;;;;;;6.68;2.70;;;18.50;84.20;;;;;;5039006;28;20036;-49
2022/06/13 01:42:58;;;;;;;6.93;2.20;;;18.60;84.30;;;;;;5039094;28;20029;-50
2022/06/13 01:45:35;;;;;;;7.93;2.25;;;18.50;84.70;;;;;;5057343;28;20033;-50
2022/06/13 01:48:27;;;;;;;6.40;2.28;;;18.50;84.80;;;;;;5058326;28;20021;-51
2022/06/13 01:51:10;;;;;;;4.97;2.03;;;18.50;85.00;;;;;;5058408;28;20021;-51
2022/06/13 01:53:44;;;;;;;5.93;2.17;;;18.40;85.30;;;;;;5058129;28;20116;-51
2022/06/13 01:56:12;;;;;;;5.50;2.17;;;18.40;85.80;;;;;;5058788;28;20029;-49
2022/06/13 01:58:46;;;;;;;4.65;2.13;;;18.40;85.80;;;;;;5057275;28;20114;-52
2022/06/13 02:01:14;;;;;;;4.75;2.35;;;18.30;86.00;;;;;;5056908;28;20111;-49
2022/06/13 02:03:50;;;;;;;5.60;2.15;;;18.20;86.20;;;;;;5058385;28;20033;-48
2022/06/13 02:06:20;;;;;;;;;;;18.10;86.50;;;;;;5058449;28;20033;-48
2022/06/13 02:08:52;;;;;;;6.30;2.08;;;18.10;86.70;;;;;;5057625;28;20291;-49
2022/06/13 02:11:21;;;;;;;9.27;2.25;;;18.10;86.80;;;;;;5051732;28;20037;-49
2022/06/13 02:14:12;;;;;;;6.03;2.50;;;18.00;87.10;;;;;;5035825;28;20052;-49
2022/06/13 02:16:45;;;;;;;5.45;1.95;;;18.00;87.20;;;;;;5035759;28;20065;-48
2022/06/13 02:19:34;;;;;;;8.23;2.25;;;18.00;87.30;;;;;;5036882;28;20052;-47
2022/06/13 02:22:21;;;;;;;5.22;1.88;;;17.90;87.10;;;;;;5035797;28;20076;-48
2022/06/13 02:24:54;;;;;;;8.43;2.85;;;17.90;87.30;;;;;;5024891;28;20444;-49
2022/06/13 02:27:24;;;;;;;5.82;2.40;;;17.90;87.40;;;;;;5036501;28;20021;-52
2022/06/13 02:29:55;;;;;;;4.45;2.40;;;17.90;87.50;;;;;;5035608;28;20033;-52
2022/06/13 02:32:33;;;;;;;5.07;1.73;;;17.80;87.40;;;;;;5036750;28;20068;-48
2022/06/13 02:35:08;;;;;;;5.93;1.92;;;17.80;87.50;;;;;;5035198;28;20036;-47
2022/06/13 02:37:59;;;;;;;6.03;2.07;;;17.80;87.70;;;;;;5035551;28;20033;-47
2022/06/13 02:40:33;;;;;;;9.00;2.20;;;17.70;87.80;;;;;;5040116;28;20728;-48
2022/06/13 02:43:09;;;;;;;6.13;1.90;;;17.60;87.80;;;;;;5038665;28;20022;-53
2022/06/13 02:46:13;;;;;;;5.63;2.20;;;17.60;87.70;;;;;;5040889;28;20404;-50
2022/06/13 02:48:46;;;;;;;6.53;1.95;;;17.60;87.50;;;;;;5018981;28;20124;-47
2022/06/13 02:51:38;;;;;;;4.95;2.15;;;17.60;87.90;;;;;;5039987;28;20076;-47
2022/06/13 02:54:12;;;;;;;10.15;2.08;;;17.60;87.80;;;;;;5040275;28;20401;-51
2022/06/13 02:59:51;;;;;;;9.18;2.70;;;17.50;87.90;;;;;;5039534;28;20095;-48
2022/06/13 03:02:26;;;;;;;6.90;2.28;;;17.40;88.40;;;;;;5050875;28;20025;-51
2022/06/13 03:05:00;;;;;;;6.45;1.95;;;17.40;88.70;;;;;;5058710;28;20505;-49
2022/06/13 03:07:34;;;;;;;5.82;2.53;;;17.40;89.10;;;;;;5059010;28;20584;-51
2022/06/13 03:10:12;;;;;;;5.97;2.28;;;17.40;89.20;;;;;;5052511;28;20026;-50
2022/06/13 03:12:59;;;;;;;8.05;2.38;;;17.30;90.00;;;;;;5051832;28;20021;-52
2022/06/13 03:15:43;;;;;;;4.72;2.00;;;17.30;89.60;;;;;;5039299;28;20105;-49
2022/06/13 03:18:19;;;;;;;4.00;2.08;;;17.30;90.10;;;;;;5037404;28;20124;-53
2022/06/13 03:20:52;;;;;;;6.68;1.83;;;17.20;90.10;;;;;;5039035;28;20037;-50
2022/06/13 03:23:40;;;;;;;6.03;1.95;;;17.20;90.00;;;;;;5048021;28;20489;-52
2022/06/13 03:26:12;;;;;;;9.48;3.17;;;17.10;90.00;;;;;;5048153;28;20044;-48
2022/06/13 03:28:56;;;;;;;9.52;2.17;;;17.10;89.50;;;;;;5052528;28;20044;-52
2022/06/13 03:31:31;;;;;;;6.47;2.47;;;17.20;89.30;;;;;;5071442;23;20574;-45
2022/06/13 03:34:05;;;;;;;9.80;2.05;;;17.20;89.70;;;;;;5048787;28;20489;-48
2022/06/13 03:36:42;;;;;;;5.00;1.90;;;17.20;89.40;;;;;;5033948;28;20085;-51
2022/06/13 03:39:25;;;;;;;5.75;2.42;;;17.30;89.30;;;;;;5035416;28;20029;-49
2022/06/13 03:41:52;;;;;;;5.28;2.45;;;17.30;88.80;;;;;;5033900;28;20493;-49
2022/06/13 03:44:41;;;;;;;5.07;2.10;;;17.30;88.50;;;;;;5028649;28;20091;-51
2022/06/13 03:47:19;;;;;;;10.82;2.20;;;17.30;88.10;;;;;;5024872;28;20053;-49
2022/06/13 03:50:10;;;;;;;3.72;1.67;;;17.30;88.20;;;;;;5033213;28;20029;-46
2022/06/13 03:52:40;;;;;;;8.13;2.10;;;17.40;87.90;;;;;;5021476;28;20037;-45
2022/06/13 03:55:22;;;;;;;6.20;1.98;;;17.40;87.70;;;;;;5028527;28;20022;-48
2022/06/13 03:57:55;;;;;;;6.05;2.90;;;17.40;87.90;;;;;;5033092;28;20030;-47
2022/06/13 04:00:26;;;;;;;9.85;2.28;;;17.50;87.60;;;;;;5026402;28;20088;-50
2022/06/13 04:02:53;;;;;;;4.47;2.28;;;17.50;86.90;;;;;;5014170;28;20030;-49
2022/06/13 04:05:41;;;;;;;3.20;1.83;;;17.50;86.80;;;;;;5019346;28;20021;-50
2022/06/13 04:08:10;;;;;;;4.53;1.88;;;17.60;86.70;;;;;;5033118;28;20096;-47
2022/06/13 04:11:10;;;;;;;6.80;2.22;;;17.60;86.30;;;;;;5033102;28;20408;-48
2022/06/13 04:13:56;;;;;;;8.38;2.22;;;17.70;86.00;;;;;;5033174;28;20037;-48
2022/06/13 04:16:35;;;;;;;8.50;2.38;;;17.70;85.70;;;;;;5033139;28;20025;-49
2022/06/13 04:19:07;;;;;;;8.25;1.80;;;17.70;85.70;;;;;;5014176;28;20045;-49
2022/06/13 04:21:49;;;;;;;4.57;1.92;;;17.80;86.10;;;;;;5013713;28;20099;-48
2022/06/13 04:24:30;;;;;;;6.28;2.30;;;17.70;86.40;;;;;;5013115;28;20032;-50
2022/06/13 04:27:05;;;;;;;5.80;2.17;;;17.70;86.60;;;;;;5013016;28;20029;-48
2022/06/13 04:29:40;;;;;;;6.10;2.47;;;17.70;86.50;;;;;;5012925;28;20061;-47
2022/06/13 04:32:12;;;;;;;3.33;1.73;;;17.80;86.40;;;;;;5013058;28;20109;-48
2022/06/13 04:34:44;;;;;;;6.88;1.67;;;17.90;85.80;;;;;;5013090;28;20029;-51
2022/06/13 04:37:11;;;;;;;4.78;1.52;;;18.00;85.50;;;;;;5012653;28;20036;-51
2022/06/13 04:39:38;;;;;;;6.38;2.30;;;18.00;85.40;;;;;;5012675;28;20034;-50
2022/06/13 04:42:06;;;;;;;8.85;2.17;;;18.10;85.50;;;;;;5012785;28;20018;-51
2022/06/13 04:44:33;;;;;;;5.20;1.65;;;18.10;85.40;;;;;;5013503;28;20026;-48
2022/06/13 04:47:00;;;;;;;4.82;1.58;;;18.20;85.10;;;;;;5020908;28;20097;-50
2022/06/13 04:49:35;;;;;;;6.05;2.00;;;18.40;84.60;;;;;;5032464;28;20032;-47
2022/06/13 04:52:08;;;;;;;4.45;1.55;;;18.60;83.90;;;;;;5018373;28;20025;-45
2022/06/13 04:54:39;;;;;;;6.20;1.90;;;18.80;83.20;;;;;;5022727;28;20044;-50
2022/06/13 04:57:06;;;;;;;7.30;2.03;;;19.00;82.50;;;;;;5031912;28;20026;-49
2022/06/13 04:59:32;;;;;;;8.30;2.03;;;19.50;82.10;;;;;;5027159;28;20416;-49
2022/06/13 05:02:01;;;;;;;5.13;1.70;;;20.30;80.70;;;;;;5031762;28;20075;-48
2022/06/13 05:04:30;;;;;;;5.50;1.83;;;21.40;76.60;;;;;;5023964;28;20026;-53
2022/06/13 05:06:59;;;;;;;7.75;2.30;;;22.40;74.80;;;;;;5021568;28;20370;-48
2022/06/13 05:09:28;;;;;;;5.55;2.05;;;23.50;71.70;;;;;;5014000;28;20041;-47
2022/06/13 05:12:18;;;;;;;4.38;1.67;;;24.10;69.20;;;;;;5017253;28;20079;-46
2022/06/13 05:15:02;;;;;;;3.30;1.65;;;24.70;68.20;;;;;;5031871;28;20159;-48
2022/06/13 05:17:56;;;;;;;10.82;2.90;;;25.30;66.80;;;;;;5018895;28;20148;-47
2022/06/13 05:20:21;;;;;;;2.03;1.60;;;25.90;65.40;;;;;;5025364;28;20034;-50
2022/06/13 05:23:24;;;;;;;4.70;1.70;;;26.20;65.10;;;;;;5025874;28;20080;-47
2022/06/13 05:25:54;;;;;;;6.50;2.67;;;26.80;63.10;;;;;;5012034;28;20398;-53
2022/06/13 05:28:23;;;;;;;5.40;1.77;;;26.80;62.70;;;;;;5011432;28;20025;-49
2022/06/13 05:30:51;;;;;;;3.25;1.60;;;27.00;62.70;;;;;;5011929;28;20437;-49
2022/06/13 05:33:21;;;;;;;10.23;2.47;;;27.50;61.90;;;;;;5011995;28;20030;-51
2022/06/13 05:35:52;;;;;;;10.40;1.92;;;27.50;61.30;;;;;;5011573;28;20505;-50
2022/06/13 05:38:20;;;;;;;4.50;1.88;;;27.70;60.70;;;;;;5011730;28;20099;-50
2022/06/13 05:40:46;;;;;;;4.93;1.85;;;28.10;60.60;;;;;;5010425;28;20112;-51
2022/06/13 05:43:12;;;;;;;6.10;1.50;;;28.40;59.80;;;;;;5011879;28;20110;-48
2022/06/13 05:45:40;;;;;;;4.28;1.60;;;29.00;59.10;;;;;;5011652;28;20507;-47
2022/06/13 05:48:12;;;;;;;3.20;1.50;;;29.10;58.50;;;;;;5011385;28;20441;-51
2022/06/13 05:50:38;;;;;;;4.18;1.58;;;28.70;58.90;;;;;;5011873;28;20049;-50
2022/06/13 05:53:04;;;;;;;6.47;1.98;;;28.90;58.70;;;;;;5011899;28;20064;-49
2022/06/13 05:55:29;;;;;;;7.60;1.77;;;29.30;57.90;;;;;;5011552;28;20484;-50
2022/06/13 05:57:56;;;;;;;4.75;1.60;;;29.10;58.50;;;;;;5011314;28;20029;-51
2022/06/13 06:00:25;;;;;;;8.85;2.35;;;29.50;57.50;;;;;;5011469;28;20075;-52
2022/06/13 06:02:50;;;;;;;4.60;2.05;;;30.10;56.80;;;;;;5011671;28;20021;-45
2022/06/13 06:05:16;;;;;;;6.25;2.13;;;30.30;56.40;;;;;;5011599;28;20379;-47
2022/06/13 06:07:42;;;;;;;7.80;1.90;;;30.10;56.50;;;;;;5011284;28;20401;-50
2022/06/13 06:10:12;;;;;;;5.47;2.33;;;30.70;56.00;;;;;;5011560;28;20030;-47
2022/06/13 06:12:38;;;;;;;7.68;2.25;;;31.10;55.60;;;;;;5014559;28;20026;-50
2022/06/13 06:15:04;;;;;;;5.13;1.70;;;30.90;56.10;;;;;;5015622;28;20040;-48
2022/06/13 06:17:29;;;;;;;5.82;1.70;;;31.10;55.10;;;;;;5015250;28;20444;-46
2022/06/13 06:19:55;;;;;;;6.20;1.95;;;30.50;56.10;;;;;;5015310;28;20034;-47
2022/06/13 06:22:20;;;;;;;5.55;1.83;;;30.10;56.00;;;;;;5015450;28;20109;-51
2022/06/13 06:24:46;;;;;;;4.15;1.80;;;29.30;56.70;;;;;;5015576;28;20084;-50
2022/06/13 06:27:14;;;;;;;6.45;1.58;;;29.70;56.40;;;;;;5015043;28;20399;-51
2022/06/13 06:29:39;;;;;;;8.18;1.92;;;29.80;56.20;;;;;;5015835;28;20038;-50
2022/06/13 06:32:05;;;;;;;7.50;1.80;;;29.80;56.50;;;;;;5015258;28;20033;-52
2022/06/13 06:34:31;;;;;;;9.98;2.42;;;30.40;55.00;;;;;;5015248;28;20062;-49
2022/06/13 06:36:56;;;;;;;6.60;2.42;;;30.90;54.20;;;;;;5021948;28;20018;-48
2022/06/13 06:39:22;;;;;;;5.40;1.42;;;30.80;55.10;;;;;;5017409;28;20543;-47
2022/06/13 06:41:47;;;;;;;7.53;1.40;;;30.70;54.60;;;;;;5015047;28;20034;-59
2022/06/13 06:44:13;;;;;;;3.75;1.90;;;31.30;54.00;;;;;;5016084;28;20030;-45
2022/06/13 06:46:38;;;;;;;8.05;1.95;;;31.80;54.00;;;;;;5015056;28;20029;-51
2022/06/13 06:49:04;;;;;;;6.40;2.58;;;32.50;52.90;;;;;;5014953;28;20402;-53
2022/06/13 06:51:29;;;;;;;5.80;1.58;;;32.80;52.20;;;;;;5020976;28;20463;-47
2022/06/13 07:02:10;;;;;;;3.83;1.92;;;32.90;50.80;;;;;;5014646;28;20037;-48
2022/06/13 07:04:35;;;;;;;4.07;1.60;;;32.00;51.30;;;;;;5014821;28;20037;-48
2022/06/13 07:07:01;;;;;;;6.18;1.80;;;31.80;52.50;;;;;;5015389;28;20250;-49
2022/06/13 07:09:26;;;;;;;16.05;2.35;;;32.20;51.50;;;;;;5029055;28;20486;-44
2022/06/13 07:11:55;;;;;;;6.30;2.50;;;32.60;50.70;;;;;;5013819;28;20025;-45
2022/06/13 07:14:28;;;;;;;5.13;1.60;;;33.20;50.20;;;;;;5021172;28;20028;-46
2022/06/13 07:16:56;;;;;;;6.17;1.67;;;32.90;49.60;;;;;;5034305;28;20061;-45
2022/06/13 07:19:21;;;;;;;4.28;1.55;;;32.80;49.80;;;;;;5033676;28;20013;-46
2022/06/13 07:21:47;;;;;;;3.75;1.50;;;32.40;50.50;;;;;;5034376;28;20409;-45
2022/06/13 07:24:13;;;;;;;5.63;1.55;;;32.20;50.40;;;;;;5029228;28;20057;-45
2022/06/13 07:26:39;;;;;;;3.22;1.50;;;32.60;50.20;;;;;;5018260;28;20026;-48
2022/06/13 07:29:05;;;;;;;7.65;1.48;;;33.10;50.00;;;;;;5015939;28;20052;-46
2022/06/13 07:31:47;;;;;;;5.22;1.75;;;33.30;49.80;;;;;;5033489;28;20061;-48
2022/06/13 07:34:19;;;;;;;3.70;1.60;;;33.40;49.20;;;;;;5032683;28;20029;-45
2022/06/13 07:36:45;;;;;;;7.57;1.88;;;33.80;48.60;;;;;;5023365;28;20087;-49
2022/06/13 07:39:11;;;;;;;5.68;1.40;;;34.30;48.10;;;;;;5014866;28;20397;-48
2022/06/13 07:41:38;;;;;;;3.72;1.63;;;33.50;48.20;;;;;;5014028;28;20030;-47
2022/06/13 07:44:05;;;;;;;4.82;1.42;;;33.30;49.20;;;;;;5021305;28;20030;-45
2022/06/13 07:46:31;;;;;;;3.00;1.30;;;32.80;48.60;;;;;;5019088;28;20022;-47
2022/06/13 07:48:57;;;;;;;4.93;1.30;;;32.40;48.60;;;;;;5030596;28;20400;-48
2022/06/13 07:51:24;;;;;;;5.53;1.70;;;32.60;48.80;;;;;;5020641;28;20030;-46
2022/06/13 07:53:50;;;;;;;1.15;1.00;;;32.80;48.10;;;;;;5013959;28;20025;-49
2022/06/13 07:56:19;;;;;;;4.80;1.40;;;32.90;48.10;;;;;;5033365;28;20025;-50
2022/06/13 07:58:47;;;;;;;3.05;1.23;;;33.30;48.00;;;;;;5030785;28;20032;-49
2022/06/13 08:01:13;;;;;;;5.72;1.65;;;33.80;47.00;;;;;;5033300;28;20496;-47
2022/06/13 08:03:39;;;;;;;207.75;184.48;;;33.40;47.50;;;;;;5031968;28;20040;-47
2022/06/13 08:06:06;;;;;;;2.90;2.20;;;34.00;47.00;;;;;;5033419;28;20028;-50
2022/06/13 08:08:35;;;;;;;4.68;1.42;;;33.80;45.60;;;;;;5032638;28;20017;-48
2022/06/13 08:11:03;;;;;;;6.22;1.60;;;33.00;46.20;;;;;;5032481;28;20393;-45
2022/06/13 08:13:29;;;;;;;3.35;1.17;;;33.00;46.60;;;;;;5033142;28;20025;-48
2022/06/13 08:15:56;;;;;;;2.53;1.33;;;33.00;47.20;;;;;;5030940;28;20018;-48
2022/06/13 08:18:21;;;;;;;4.15;1.27;;;32.40;47.80;;;;;;5030888;28;20041;-48
2022/06/13 08:20:47;;;;;;;4.95;1.88;;;31.80;48.40;;;;;;5020240;28;20433;-51
2022/06/13 08:23:14;;;;;;;4.40;1.52;;;31.10;48.10;;;;;;5013074;28;20022;-47
2022/06/13 08:25:41;;;;;;;6.03;1.60;;;30.00;48.70;;;;;;5013055;28;20024;-50
2022/06/13 08:28:09;;;;;;;5.68;1.48;;;29.90;50.20;;;;;;5012930;28;20026;-48
2022/06/13 08:30:39;;;;;;;5.40;1.70;;;29.70;50.80;;;;;;5013244;28;20030;-49
2022/06/13 08:33:05;;;;;;;3.92;1.80;;;29.40;51.40;;;;;;5013031;28;20026;-48
2022/06/13 08:35:30;;;;;;;7.25;1.70;;;29.30;51.10;;;;;;5012046;28;20026;-52
2022/06/13 08:37:56;;;;;;;4.07;1.42;;;29.00;51.60;;;;;;5012880;28;20100;-48
2022/06/13 08:40:26;;;;;;;3.42;1.48;;;28.80;52.00;;;;;;5012841;28;20076;-47
2022/06/13 08:43:01;;;;;;;7.07;1.90;;;28.50;52.90;;;;;;5013047;28;20032;-48
2022/06/13 08:45:32;;;;;;;;;;;28.10;53.00;;;;;;5013315;28;20493;-48
2022/06/13 08:48:07;;;;;;;3.15;1.63;;;27.60;54.60;;;;;;5012343;28;19905;-49
2022/06/13 08:50:38;;;;;;;6.63;1.67;;;27.10;54.30;;;;;;5012638;28;20021;-52
2022/06/13 08:53:21;;;;;;;3.05;1.77;;;26.70;55.20;;;;;;5012962;28;20033;-47
2022/06/13 08:56:07;;;;;;;5.18;1.50;;;26.60;54.80;;;;;;5068897;28;20382;-48
2022/06/13 08:58:38;;;;;;;6.20;1.67;;;26.70;55.30;;;;;;5068563;28;20103;-50
2022/06/13 09:01:10;;;;;;;5.25;2.05;;;26.80;56.10;;;;;;5069055;28;20083;-52
2022/06/13 09:03:48;;;;;;;7.85;2.70;;;27.10;54.90;;;;;;5068854;28;20167;-47
2022/06/13 09:06:19;;;;;;;9.13;1.88;;;27.40;53.50;;;;;;5068784;28;20029;-51
2022/06/13 09:08:57;;;;;;;5.55;1.73;;;27.60;53.50;;;;;;5068166;28;20473;-47
2022/06/13 09:11:33;;;;;;;4.65;1.48;;;27.50;53.80;;;;;;5068298;28;20115;-49
2022/06/13 09:14:24;;;;;;;5.15;1.67;;;27.00;54.10;;;;;;5068419;28;20029;-51
2022/06/13 09:17:02;;;;;;;5.20;1.95;;;26.60;55.00;;;;;;5057782;28;20040;-53
2022/06/13 09:20:02;;;;;;;5.50;1.70;;;26.40;53.90;;;;;;5068390;28;20086;-51
2022/06/13 09:22:43;;;;;;;6.50;1.75;;;26.80;54.20;;;;;;5068515;28;20017;-47
2022/06/13 09:25:16;;;;;;;10.43;2.13;;;26.90;55.10;;;;;;5068595;28;20029;-47
2022/06/13 09:27:54;;;;;;;6.00;1.75;;;27.00;55.20;;;;;;5067990;28;20044;-49
2022/06/13 09:30:25;;;;;;;3.78;1.65;;;26.80;55.30;;;;;;5077201;22;20081;-54
2022/06/13 09:32:54;;;;;;;12.18;2.08;;;26.90;55.60;;;;;;5031454;28;20037;-50
2022/06/13 09:35:28;;;;;;;6.60;1.80;;;26.90;55.70;;;;;;5033219;28;20081;-49
2022/06/13 09:38:07;;;;;;;3.47;1.70;;;26.40;54.70;;;;;;5048276;28;20033;-49
2022/06/13 09:41:01;;;;;;;9.07;1.83;;;25.90;56.30;;;;;;5031387;28;20503;-48
2022/06/13 09:43:59;;;;;;;5.53;1.60;;;25.50;56.50;;;;;;5032759;28;20105;-52
2022/06/13 09:46:52;;;;;;;5.18;2.00;;;25.30;55.90;;;;;;5031232;28;20017;-47
2022/06/13 09:49:38;;;;;;;5.60;1.50;;;25.40;56.20;;;;;;5032803;28;20474;-51
2022/06/13 09:52:21;;;;;;;5.65;1.85;;;25.60;54.70;;;;;;5031031;28;20034;-50
2022/06/13 09:54:57;;;;;;;6.18;1.77;;;25.80;55.00;;;;;;5032565;28;20022;-49
2022/06/13 09:57:53;;;;;;;5.78;1.83;;;25.80;56.30;;;;;;5030869;28;20033;-50
2022/06/13 10:00:36;;;;;;;3.78;1.40;;;25.50;57.60;;;;;;5032403;28;20065;-52
2022/06/13 10:03:22;;;;;;;3.88;1.70;;;25.10;57.30;;;;;;5033020;28;20025;-48
2022/06/13 10:06:25;;;;;;;8.18;1.70;;;25.10;56.90;;;;;;5025435;28;20042;-50
2022/06/13 10:09:22;;;;;;;2.65;1.40;;;25.20;56.30;;;;;;5017833;28;20030;-53
2022/06/13 10:11:55;;;;;;;3.53;1.42;;;25.20;56.40;;;;;;5019412;28;20096;-50
2022/06/13 10:14:34;;;;;;;7.90;1.95;;;25.40;57.30;;;;;;5019347;28;20026;-52
2022/06/13 10:17:25;;;;;;;4.40;1.65;;;25.10;57.00;;;;;;5018846;28;20018;-48
2022/06/13 10:20:03;;;;;;;7.43;1.55;;;24.90;57.00;;;;;;5019610;28;20030;-49
2022/06/13 10:22:52;;;;;;;4.57;1.50;;;24.80;57.00;;;;;;5019208;28;20033;-50
2022/06/13 10:25:34;;;;;;;3.50;1.35;;;24.70;57.00;;;;;;5018920;28;20030;-51
2022/06/13 10:28:19;;;;;;;3.80;1.50;;;24.60;56.50;;;;;;5020989;28;20049;-48
2022/06/13 10:31:00;;;;;;;4.22;1.80;;;24.50;55.80;;;;;;5019643;28;20034;-53
2022/06/13 10:34:05;;;;;;;7.57;1.90;;;24.20;56.80;;;;;;5018996;28;20030;-49
2022/06/13 10:36:55;;;;;;;23.95;14.82;;;24.10;56.70;;;;;;4988064;28;20095;-52
2022/06/13 10:39:24;;;;;;;17.15;11.73;;;24.20;58.10;;;;;;5001635;28;20077;-49
2022/06/13 10:41:55;;;;;;;5.20;2.95;;;24.50;58.00;;;;;;5019136;28;20041;-51
2022/06/13 10:44:22;;;;;;;3.45;1.90;;;24.50;57.50;;;;;;5020014;28;20096;-51
2022/06/13 10:47:01;;;;;;;11.43;1.75;;;24.30;57.60;;;;;;5018212;28;20026;-48
2022/06/13 10:49:36;;;;;;;3.47;1.40;;;24.40;57.10;;;;;;5018526;28;20067;-46
2022/06/13 10:52:03;;;;;;;;;;;24.30;57.90;;;;;;5018285;28;20033;-51
2022/06/13 10:54:43;;;;;;;7.22;2.20;;;24.20;58.70;;;;;;5018080;28;19913;-53
2022/06/13 10:57:14;;;;;;;6.35;2.28;;;24.40;57.90;;;;;;5011209;28;20037;-48
2022/06/13 10:59:40;;;;;;;8.25;3.25;;;24.60;57.80;;;;;;5013714;28;20109;-54
2022/06/13 11:02:26;;;;;;;4.63;1.80;;;24.70;58.60;;;;;;5013361;28;20030;-50
2022/06/13 11:05:18;;;;;;;4.38;1.85;;;24.60;57.60;;;;;;5012064;28;20084;-49
2022/06/13 11:07:49;;;;;;;3.65;1.80;;;24.40;58.10;;;;;;5012152;28;20263;-53
2022/06/13 11:10:51;;;;;;;5.55;1.70;;;24.40;58.20;;;;;;5018290;28;20654;-51
2022/06/13 11:13:30;;;;;;;3.88;1.75;;;24.50;58.10;;;;;;5016662;28;20030;-50
2022/06/13 11:24:52;;;;;;;3.35;1.60;;;24.40;58.90;;;;;;5016766;28;20044;-52
2022/06/13 11:27:39;;;;;;;8.35;2.72;;;24.40;61.00;;;;;;5018305;28;20041;-53
2022/06/13 11:30:28;;;;;;;5.10;2.13;;;24.40;59.40;;;;;;5017740;28;20030;-53
2022/06/13 11:33:06;;;;;;;3.42;2.00;;;24.20;59.80;;;;;;5019470;28;20109;-51
2022/06/13 11:35:44;;;;;;;8.20;2.15;;;24.20;59.80;;;;;;5006149;28;20037;-52
2022/06/13 11:38:20;;;;;;;8.45;2.30;;;24.10;60.30;;;;;;5003253;28;20045;-50
2022/06/13 11:41:05;;;;;;;2.30;2.00;;;23.90;60.70;;;;;;5014369;28;20025;-51
2022/06/13 11:43:34;;;;;;;;;;;23.90;59.10;;;;;;5011737;28;20068;-56
2022/06/13 11:46:03;;;;;;;10.38;1.98;;;24.00;60.40;;;;;;5012426;28;19910;-49
2022/06/13 11:48:30;;;;;;;4.30;1.98;;;24.10;59.20;;;;;;5010883;28;20030;-48
2022/06/13 11:50:59;;;;;;;4.90;2.00;;;24.20;60.20;;;;;;5012251;28;20030;-57
2022/06/13 11:53:38;;;;;;;7.72;2.10;;;24.30;60.70;;;;;;5005926;28;20040;-55
2022/06/13 11:56:19;;;;;;;4.53;2.20;;;24.40;60.20;;;;;;5013139;28;20030;-51
2022/06/13 11:58:47;;;;;;;7.20;2.30;;;24.40;60.80;;;;;;5010337;28;20052;-53
2022/06/13 12:01:35;;;;;;;16.65;9.23;;;24.20;61.60;;;;;;5010645;28;20026;-53
2022/06/13 12:04:13;;;;;;;4.60;1.98;;;24.30;61.30;;;;;;4992700;28;20030;-50
2022/06/13 12:07:19;;;;;;;4.40;1.95;;;24.20;60.60;;;;;;5003065;28;20119;-50
2022/06/13 12:09:52;;;;;;;5.95;1.90;;;24.20;60.90;;;;;;5012244;28;20033;-55
2022/06/13 12:12:17;;;;;;;7.18;2.45;;;24.20;60.00;;;;;;5012246;28;20111;-54
2022/06/13 12:14:43;;;;;;;4.22;1.83;;;24.20;60.40;;;;;;5011935;28;20069;-51
2022/06/13 12:17:21;;;;;;;7.45;2.30;;;24.30;60.00;;;;;;5013200;28;20108;-52
2022/06/13 12:20:10;;;;;;;7.55;2.05;;;24.30;60.00;;;;;;5012019;28;20022;-48
2022/06/13 12:23:11;;;;;;;6.20;1.95;;;24.20;61.60;;;;;;5014405;28;20081;-50
2022/06/13 12:25:47;;;;;;;7.00;2.13;;;24.30;61.20;;;;;;5011923;28;20061;-47
2022/06/13 12:28:16;;;;;;;6.63;1.90;;;24.00;61.10;;;;;;5011969;28;20026;-50
2022/06/13 12:30:51;;;;;;;6.95;2.45;;;24.00;61.50;;;;;;5011114;28;20038;-53
2022/06/13 12:33:28;;;;;;;6.63;2.20;;;23.90;62.20;;;;;;5011111;28;20038;-47
2022/06/13 12:36:20;;;;;;;6.43;2.38;;;24.00;62.40;;;;;;4992266;28;20066;-49
2022/06/13 12:39:01;;;;;;;7.55;2.30;;;24.00;62.70;;;;;;5002797;28;20065;-48
2022/06/13 12:41:52;;;;;;;3.72;2.20;;;24.00;63.90;;;;;;5011884;28;20394;-48
2022/06/13 12:44:32;;;;;;;6.57;2.33;;;23.80;62.80;;;;;;5011420;28;20037;-47
2022/06/13 12:47:46;;;;;;;5.82;2.13;;;23.80;64.20;;;;;;5011193;28;20034;-52
2022/06/13 12:50:54;;;;;;;9.40;2.72;;;24.00;63.70;;;;;;5001944;28;20505;-47
2022/06/13 12:53:23;;;;;;;8.05;2.08;;;23.90;62.90;;;;;;4991820;28;20038;-48
2022/06/13 12:56:01;;;;;;;5.40;2.20;;;24.00;63.40;;;;;;4991562;28;20057;-51
2022/06/13 12:58:55;;;;;;;5.50;2.50;;;24.00;63.00;;;;;;4991576;28;20061;-48
2022/06/13 13:01:25;;;;;;;11.73;2.30;;;24.00;63.10;;;;;;4991820;28;20128;-50
2022/06/13 13:04:09;;;;;;;4.18;2.08;;;23.80;61.30;;;;;;4991754;28;20227;-44
2022/06/13 13:06:49;;;;;;;4.13;2.00;;;23.70;62.20;;;;;;4992075;28;20028;-48
2022/06/13 13:09:34;;;;;;;6.22;2.15;;;23.80;61.80;;;;;;4991812;28;20516;-48
2022/06/13 13:12:35;;;;;;;7.13;2.15;;;23.80;61.20;;;;;;4991878;28;20030;-47
2022/06/13 13:15:39;;;;;;;4.80;2.15;;;23.70;62.00;;;;;;4991972;28;20052;-49
2022/06/13 13:18:14;;;;;;;13.50;3.50;;;23.50;63.30;;;;;;4991583;28;20022;-49
2022/06/13 13:20:52;;;;;;;6.70;2.22;;;23.40;64.60;;;;;;4991956;28;20023;-48
2022/06/13 13:23:36;;;;;;;8.82;2.45;;;23.10;64.70;;;;;;4991968;28;20030;-50
2022/06/13 13:26:27;;;;;;;7.43;2.75;;;23.20;64.50;;;;;;4992005;28;20054;-47
2022/06/13 13:29:37;;;;;;;12.15;3.22;;;23.10;65.20;;;;;;4991571;28;20030;-47
2022/06/13 13:32:33;;;;;;;6.85;2.35;;;23.10;66.30;;;;;;4931446;29;20531;-47
2022/06/13 13:35:19;;;;;;;9.95;3.00;;;23.20;64.20;;;;;;4991182;28;20074;-51
2022/06/13 13:37:55;;;;;;;6.30;2.58;;;23.20;65.00;;;;;;4991318;28;20662;-46
2022/06/13 13:40:35;;;;;;;8.65;2.35;;;23.30;63.80;;;;;;4991717;28;20438;-50
2022/06/13 13:43:07;;;;;;;9.77;2.50;;;23.30;63.40;;;;;;4995379;28;20105;-45
2022/06/13 13:45:38;;;;;;;7.70;2.75;;;23.20;63.50;;;;;;4995413;28;20165;-47
2022/06/13 13:48:31;;;;;;;10.57;2.55;;;23.30;64.50;;;;;;4994755;28;20465;-46
2022/06/13 13:51:27;;;;;;;10.27;3.90;;;23.40;64.00;;;;;;4995274;28;20030;-47
2022/06/13 13:54:07;;;;;;;8.02;2.65;;;23.60;63.20;;;;;;4995120;28;20379;-44